Time;durP1;ratioP1;P1;durP2;ratioP2;P2;SDS_P1;SDS_P2;PMS_P1;PMS_P2;Temp;Humidity;BMP_temperature;BMP_pressure;BME280_temperature;BME280_humidity;BME280_pressure;Samples;Min_cycle;Max_cycle;Signal;HPM_P1;HPM_P2
2022/07/05 00:02:41;;;;;;;6.83;4.67;;;21.20;99.90;;;;;;4394089;28;657799;-62
2022/07/05 00:05:28;;;;;;;5.53;4.73;;;21.20;99.90;;;;;;4412242;28;657400;-62
2022/07/05 00:08:17;;;;;;;7.87;4.83;;;21.10;99.90;;;;;;4393941;28;657568;-63
2022/07/05 00:11:04;;;;;;;5.30;4.80;;;21.10;99.90;;;;;;4412967;28;658195;-62
2022/07/05 00:13:51;;;;;;;9.60;4.45;;;21.00;99.90;;;;;;4393679;28;657757;-63
2022/07/05 00:16:38;;;;;;;8.50;4.70;;;21.00;99.90;;;;;;4412825;28;658912;-63
2022/07/05 00:19:25;;;;;;;11.30;5.50;;;21.00;99.90;;;;;;4394235;28;657752;-64
2022/07/05 00:22:12;;;;;;;14.33;5.57;;;20.60;99.90;;;;;;4411505;28;659448;-63
2022/07/05 00:25:01;;;;;;;17.97;6.27;;;20.00;99.90;;;;;;4411232;28;659039;-64
2022/07/05 00:27:48;;;;;;;21.70;6.20;;;19.90;99.90;;;;;;4411374;28;658976;-63
2022/07/05 00:30:36;;;;;;;9.53;5.83;;;19.80;99.90;;;;;;4392606;28;658865;-63
2022/07/05 00:33:23;;;;;;;9.43;6.43;;;19.60;99.90;;;;;;4412653;28;658769;-63
2022/07/05 00:36:10;;;;;;;12.67;6.40;;;19.10;99.90;;;;;;4403860;28;657745;-65
2022/07/05 00:38:57;;;;;;;8.53;6.30;;;19.00;99.90;;;;;;4415187;28;658803;-63
2022/07/05 00:41:46;;;;;;;10.27;6.33;;;18.90;99.90;;;;;;4412782;28;657556;-63
2022/07/05 00:44:34;;;;;;;9.27;6.20;;;19.00;99.90;;;;;;4388717;28;659464;-63
2022/07/05 00:47:22;;;;;;;9.50;6.57;;;18.80;99.90;;;;;;4376864;28;657265;-63
2022/07/05 00:50:10;;;;;;;13.97;7.30;;;18.70;99.90;;;;;;4391559;28;657381;-65
2022/07/05 00:52:57;;;;;;;11.77;7.10;;;18.70;99.90;;;;;;4398266;28;658565;-63
2022/07/05 00:55:44;;;;;;;9.87;6.90;;;18.70;99.90;;;;;;4397761;28;658768;-63
2022/07/05 00:58:33;;;;;;;9.13;6.10;;;18.50;99.90;;;;;;4376046;28;658632;-63
2022/07/05 01:01:20;;;;;;;12.97;6.70;;;18.60;99.90;;;;;;4382431;28;657535;-65
2022/07/05 01:04:07;;;;;;;10.00;6.57;;;18.30;99.90;;;;;;4401631;28;659339;-63
2022/07/05 01:06:55;;;;;;;11.37;7.33;;;18.30;99.90;;;;;;4395884;28;658473;-64
2022/07/05 01:09:42;;;;;;;13.87;7.23;;;18.20;99.90;;;;;;4401258;28;660496;-63
2022/07/05 01:12:29;;;;;;;21.07;7.37;;;18.20;99.90;;;;;;4396965;28;658858;-64
2022/07/05 01:15:18;;;;;;;14.47;7.17;;;18.10;99.90;;;;;;4378394;28;659549;-63
2022/07/05 01:18:06;;;;;;;9.03;6.80;;;18.10;99.90;;;;;;4378115;28;659923;-64
2022/07/05 01:20:53;;;;;;;8.17;6.77;;;18.20;99.90;;;;;;4398175;28;658394;-63
2022/07/05 01:23:42;;;;;;;7.80;6.30;;;18.00;99.90;;;;;;4379074;28;657625;-64
2022/07/05 01:26:29;;;;;;;12.40;6.20;;;18.00;99.90;;;;;;4402074;28;657262;-63
2022/07/05 01:29:16;;;;;;;6.97;6.23;;;17.80;99.90;;;;;;4375903;28;659172;-63
2022/07/05 01:32:03;;;;;;;8.37;6.13;;;17.80;99.90;;;;;;4398024;28;657875;-63
2022/07/05 01:34:50;;;;;;;10.03;6.17;;;17.80;99.90;;;;;;4379198;28;657571;-64
2022/07/05 01:37:38;;;;;;;10.00;6.37;;;17.80;99.90;;;;;;4396740;28;660081;-63
2022/07/05 01:40:26;;;;;;;6.57;6.00;;;17.90;99.90;;;;;;4389986;28;659301;-64
2022/07/05 01:43:13;;;;;;;7.30;5.63;;;17.90;99.90;;;;;;4397669;28;657743;-63
2022/07/05 01:46:01;;;;;;;7.60;5.30;;;17.80;99.90;;;;;;4379586;28;657383;-63
2022/07/05 01:48:48;;;;;;;8.03;5.80;;;17.70;99.90;;;;;;4403011;28;658565;-63
2022/07/05 01:51:38;;;;;;;7.80;5.37;;;17.50;99.90;;;;;;4387328;28;657447;-64
2022/07/05 01:54:26;;;;;;;6.07;5.47;;;17.40;99.90;;;;;;4379749;28;657638;-63
2022/07/05 01:57:14;;;;;;;7.97;5.57;;;17.40;99.90;;;;;;4400809;28;658682;-63
2022/07/05 02:00:02;;;;;;;6.07;5.47;;;17.30;99.90;;;;;;4379573;28;658710;-63
2022/07/05 02:02:49;;;;;;;7.27;5.90;;;17.50;99.90;;;;;;4398043;28;657766;-63
2022/07/05 02:05:36;;;;;;;5.23;4.70;;;17.60;99.90;;;;;;4378040;28;657576;-63
2022/07/05 02:08:24;;;;;;;5.07;4.60;;;17.70;99.90;;;;;;4401788;28;659268;-63
2022/07/05 02:11:11;;;;;;;5.93;4.97;;;17.50;99.90;;;;;;4379943;28;658817;-63
2022/07/05 02:14:00;;;;;;;6.00;4.87;;;17.50;99.90;;;;;;4397924;28;658803;-63
2022/07/05 02:16:47;;;;;;;9.30;4.90;;;17.50;99.90;;;;;;4375405;28;658592;-63
2022/07/05 02:19:35;;;;;;;10.37;4.40;;;17.40;99.90;;;;;;4397198;28;657429;-63
2022/07/05 02:22:23;;;;;;;5.87;4.23;;;17.50;99.90;;;;;;4373921;28;659894;-62
2022/07/05 02:25:10;;;;;;;5.77;4.60;;;17.60;99.90;;;;;;4392244;28;657975;-64
2022/07/05 02:27:57;;;;;;;5.13;4.30;;;17.60;99.90;;;;;;4401947;28;657652;-64
2022/07/05 02:30:46;;;;;;;6.43;4.50;;;17.40;99.90;;;;;;4397745;28;658457;-64
2022/07/05 02:33:33;;;;;;;5.00;4.30;;;17.50;99.90;;;;;;4375012;28;658184;-63
2022/07/05 02:36:20;;;;;;;4.63;4.00;;;17.50;99.90;;;;;;4379009;28;657817;-64
2022/07/05 02:39:07;;;;;;;4.17;3.57;;;17.60;99.90;;;;;;4397824;28;658602;-64
2022/07/05 02:41:54;;;;;;;6.77;4.23;;;17.60;99.90;;;;;;4397723;28;657732;-64
2022/07/05 02:44:41;;;;;;;6.87;4.80;;;17.50;99.90;;;;;;4378989;28;658803;-64
2022/07/05 02:47:31;;;;;;;6.27;4.23;;;17.40;99.90;;;;;;4380455;28;657524;-63
2022/07/05 02:50:18;;;;;;;6.10;4.47;;;17.40;99.90;;;;;;4356021;28;657701;-63
2022/07/05 02:53:06;;;;;;;7.53;4.43;;;17.40;99.90;;;;;;4361320;28;657836;-64
2022/07/05 02:55:53;;;;;;;4.73;4.33;;;17.30;99.90;;;;;;4379893;28;658467;-64
2022/07/05 02:58:40;;;;;;;6.63;4.37;;;17.30;99.90;;;;;;4371488;28;658119;-65
2022/07/05 03:01:28;;;;;;;3.60;3.30;;;17.40;99.90;;;;;;4384362;28;657747;-63
2022/07/05 03:04:16;;;;;;;6.00;4.00;;;17.50;99.90;;;;;;4361452;28;657760;-65
2022/07/05 03:07:04;;;;;;;4.40;4.00;;;17.60;99.90;;;;;;4380177;28;658046;-63
2022/07/05 03:09:51;;;;;;;6.37;4.47;;;17.60;99.90;;;;;;4360338;28;658056;-64
2022/07/05 03:12:38;;;;;;;6.17;5.10;;;17.80;99.90;;;;;;4379873;28;658114;-63
2022/07/05 03:15:25;;;;;;;9.13;5.80;;;17.80;99.90;;;;;;4360828;28;657926;-64
2022/07/05 03:18:12;;;;;;;6.93;5.13;;;17.90;99.90;;;;;;4378668;28;659248;-64
2022/07/05 03:21:01;;;;;;;6.63;5.20;;;17.90;99.90;;;;;;4379811;28;657846;-64
2022/07/05 03:23:48;;;;;;;9.07;5.10;;;17.90;99.90;;;;;;4356770;28;658553;-64
2022/07/05 03:26:35;;;;;;;6.43;5.30;;;17.90;99.90;;;;;;4361977;28;657564;-66
2022/07/05 03:29:22;;;;;;;6.77;4.87;;;18.00;99.90;;;;;;4383642;28;658061;-64
2022/07/05 03:32:09;;;;;;;8.43;5.40;;;18.00;99.90;;;;;;4390100;28;657429;-64
2022/07/05 03:34:56;;;;;;;7.23;4.70;;;17.80;99.90;;;;;;4374449;28;657565;-64
2022/07/05 03:37:45;;;;;;;8.37;4.77;;;17.80;99.90;;;;;;4397056;28;658111;-64
2022/07/05 03:40:32;;;;;;;6.47;3.90;;;17.80;99.90;;;;;;4374137;28;658808;-63
2022/07/05 03:43:19;;;;;;;7.03;4.60;;;17.80;99.90;;;;;;4396797;28;657318;-63
2022/07/05 03:46:06;;;;;;;7.93;5.20;;;17.80;99.90;;;;;;4387992;28;657593;-64
2022/07/05 03:48:53;;;;;;;7.70;6.50;;;17.90;99.90;;;;;;4414139;28;658652;-64
2022/07/05 03:51:40;;;;;;;9.87;8.30;;;17.90;99.90;;;;;;4395089;28;657566;-65
2022/07/05 03:54:29;;;;;;;10.23;7.73;;;18.00;99.90;;;;;;4413791;28;658565;-64
2022/07/05 03:57:16;;;;;;;10.23;8.40;;;18.00;99.90;;;;;;4394077;28;658843;-64
2022/07/05 04:00:04;;;;;;;10.53;8.17;;;18.10;99.90;;;;;;4412634;28;659282;-64
2022/07/05 04:02:51;;;;;;;13.10;7.70;;;18.10;99.90;;;;;;4394054;28;658956;-64
2022/07/05 04:05:39;;;;;;;13.00;7.70;;;18.10;99.90;;;;;;4412580;28;660025;-64
2022/07/05 04:08:26;;;;;;;11.60;8.40;;;18.10;99.90;;;;;;4391361;28;658415;-64
2022/07/05 04:11:15;;;;;;;10.40;7.83;;;18.10;99.90;;;;;;4414934;28;659737;-64
2022/07/05 04:14:02;;;;;;;8.90;7.37;;;17.90;99.90;;;;;;4389927;28;658762;-64
2022/07/05 04:16:50;;;;;;;10.33;7.80;;;17.90;99.90;;;;;;4413588;28;658370;-64
2022/07/05 04:19:37;;;;;;;9.43;7.47;;;18.00;99.90;;;;;;4417044;28;659482;-64
2022/07/05 04:22:24;;;;;;;7.80;6.93;;;18.00;99.90;;;;;;4413844;28;658233;-64
2022/07/05 04:25:17;;;;;;;9.37;6.87;;;18.10;99.90;;;;;;4391076;28;658188;-64
2022/07/05 04:28:06;;;;;;;11.13;7.13;;;18.00;99.90;;;;;;4390871;28;657983;-64
2022/07/05 04:30:53;;;;;;;10.53;7.40;;;17.90;99.90;;;;;;4393050;28;660035;-63
2022/07/05 04:33:40;;;;;;;10.10;8.37;;;17.80;99.90;;;;;;4397045;28;658714;-65
2022/07/05 04:36:27;;;;;;;14.00;7.10;;;17.80;99.90;;;;;;4415985;28;659979;-64
2022/07/05 04:39:15;;;;;;;9.53;6.40;;;18.00;99.90;;;;;;4410694;28;659020;-65
2022/07/05 04:42:02;;;;;;;7.40;6.60;;;18.20;99.90;;;;;;4421321;28;657820;-64
2022/07/05 04:44:51;;;;;;;11.27;7.70;;;18.20;99.90;;;;;;4416609;28;657607;-64
2022/07/05 04:47:38;;;;;;;8.20;6.83;;;18.10;99.90;;;;;;4392677;28;659187;-64
2022/07/05 04:50:25;;;;;;;10.30;7.50;;;18.00;99.90;;;;;;4400352;28;657381;-66
2022/07/05 04:53:12;;;;;;;9.13;7.17;;;17.90;99.90;;;;;;4419440;28;658564;-64
2022/07/05 04:55:59;;;;;;;8.83;7.27;;;17.90;99.90;;;;;;4416400;28;657528;-64
2022/07/05 04:58:46;;;;;;;8.53;7.17;;;18.00;99.90;;;;;;4394052;28;657480;-64
2022/07/05 05:01:35;;;;;;;12.17;7.37;;;18.10;99.90;;;;;;4416576;28;658864;-64
2022/07/05 05:04:22;;;;;;;10.03;6.63;;;17.90;99.90;;;;;;4392457;28;659979;-64
2022/07/05 05:07:09;;;;;;;9.07;6.83;;;17.80;99.90;;;;;;4414523;28;658767;-64
2022/07/05 05:09:56;;;;;;;12.30;6.70;;;17.80;99.90;;;;;;4397764;28;657585;-64
2022/07/05 05:12:43;;;;;;;10.27;7.00;;;18.00;99.90;;;;;;4415124;28;659667;-64
2022/07/05 05:15:30;;;;;;;10.53;7.40;;;18.10;99.90;;;;;;4395860;28;658621;-65
2022/07/05 05:18:24;;;;;;;13.47;7.40;;;18.00;99.90;;;;;;4415280;28;660141;-64
2022/07/05 05:21:11;;;;;;;13.23;7.40;;;17.90;99.90;;;;;;4393554;28;658703;-65
2022/07/05 05:23:58;;;;;;;15.80;7.30;;;18.00;99.90;;;;;;4418550;28;658745;-65
2022/07/05 05:26:45;;;;;;;9.50;7.17;;;18.00;99.90;;;;;;4395164;28;659040;-66
2022/07/05 05:29:32;;;;;;;9.97;7.90;;;18.00;99.90;;;;;;4419696;28;657557;-65
2022/07/05 05:32:19;;;;;;;9.50;7.40;;;18.00;99.90;;;;;;4415753;28;658109;-65
2022/07/05 05:35:08;;;;;;;9.10;6.73;;;18.10;99.90;;;;;;4397214;28;657822;-65
2022/07/05 05:37:56;;;;;;;9.13;6.80;;;18.30;99.90;;;;;;4396907;28;657941;-65
2022/07/05 05:40:44;;;;;;;11.97;7.20;;;18.20;99.90;;;;;;4417005;28;659109;-64
2022/07/05 05:43:31;;;;;;;9.53;6.73;;;18.30;99.90;;;;;;4392364;28;658868;-65
2022/07/05 05:46:18;;;;;;;8.57;6.87;;;18.40;99.90;;;;;;4415660;28;658692;-64
2022/07/05 05:49:05;;;;;;;10.13;7.40;;;18.50;99.90;;;;;;4398431;28;658175;-66
2022/07/05 05:51:53;;;;;;;12.63;7.80;;;18.60;99.90;;;;;;4418637;28;658503;-64
2022/07/05 05:54:41;;;;;;;10.00;7.43;;;18.60;99.90;;;;;;4395543;28;658558;-65
2022/07/05 05:57:28;;;;;;;9.83;7.13;;;18.60;99.90;;;;;;4418736;28;659554;-65
2022/07/05 06:00:16;;;;;;;8.67;6.53;;;18.60;99.90;;;;;;4404765;28;657409;-65
2022/07/05 06:03:03;;;;;;;9.03;6.83;;;18.70;99.90;;;;;;4415520;28;658428;-65
2022/07/05 06:05:50;;;;;;;12.73;7.00;;;18.70;99.90;;;;;;4396880;28;657609;-65
2022/07/05 06:08:39;;;;;;;10.60;7.67;;;18.60;99.90;;;;;;4414533;28;659998;-64
2022/07/05 06:11:26;;;;;;;7.97;7.00;;;18.60;99.90;;;;;;4393769;28;658825;-64
2022/07/05 06:14:13;;;;;;;11.33;7.90;;;18.70;99.90;;;;;;4418750;28;658987;-64
2022/07/05 06:17:00;;;;;;;13.53;8.37;;;18.50;99.90;;;;;;4396890;28;659225;-66
2022/07/05 06:19:47;;;;;;;11.23;7.13;;;18.50;99.90;;;;;;4418084;28;659284;-65
2022/07/05 06:22:34;;;;;;;13.43;7.57;;;18.60;99.90;;;;;;4414276;28;658862;-64
2022/07/05 06:25:23;;;;;;;9.53;8.00;;;18.70;99.90;;;;;;4391948;28;658452;-64
2022/07/05 06:28:10;;;;;;;10.70;8.00;;;18.70;99.90;;;;;;4401047;28;657642;-66
2022/07/05 06:30:57;;;;;;;10.70;8.73;;;18.60;99.90;;;;;;4417703;28;659261;-64
2022/07/05 06:33:44;;;;;;;17.70;9.93;;;18.50;99.90;;;;;;4413798;28;658803;-65
2022/07/05 06:36:32;;;;;;;13.27;10.43;;;18.30;99.90;;;;;;4389102;28;659158;-65
2022/07/05 06:39:20;;;;;;;16.43;10.27;;;18.30;99.90;;;;;;4412342;28;659812;-66
2022/07/05 06:42:09;;;;;;;14.03;11.40;;;18.30;99.90;;;;;;4416721;28;660539;-65
2022/07/05 06:44:56;;;;;;;14.47;10.93;;;18.30;99.90;;;;;;4392417;28;659849;-65
2022/07/05 06:47:43;;;;;;;16.90;11.43;;;18.20;99.90;;;;;;4398032;28;660513;-65
2022/07/05 06:50:31;;;;;;;15.63;11.97;;;18.20;99.90;;;;;;4380278;28;659517;-66
2022/07/05 06:53:18;;;;;;;16.00;12.10;;;18.20;99.90;;;;;;4394905;28;659969;-64
2022/07/05 06:56:06;;;;;;;14.67;12.03;;;18.20;99.90;;;;;;4376165;28;659875;-65
2022/07/05 06:58:54;;;;;;;13.17;10.73;;;18.20;99.90;;;;;;4395364;28;660067;-64
2022/07/05 07:01:41;;;;;;;15.10;9.77;;;18.30;99.90;;;;;;4375868;28;659632;-64
2022/07/05 07:04:28;;;;;;;13.00;9.10;;;18.30;99.90;;;;;;4395859;28;658724;-65
2022/07/05 07:10:20;;;;;;;16.43;9.73;;;18.30;99.90;;;;;;4369039;28;658706;-66
2022/07/05 07:13:07;;;;;;;12.68;9.88;;;18.40;99.90;;;;;;4400103;28;659109;-65
2022/07/05 07:15:56;;;;;;;14.73;9.07;;;18.20;99.90;;;;;;4396202;28;659124;-64
2022/07/05 07:18:43;;;;;;;13.70;9.63;;;18.20;99.90;;;;;;4373180;28;659114;-65
2022/07/05 07:21:30;;;;;;;14.97;9.23;;;18.20;99.90;;;;;;4384231;28;658647;-65
2022/07/05 07:24:17;;;;;;;11.00;9.20;;;18.30;99.90;;;;;;4399990;28;659493;-65
2022/07/05 07:27:06;;;;;;;14.23;9.67;;;18.40;99.90;;;;;;4395891;28;658615;-65
2022/07/05 07:29:53;;;;;;;14.27;9.97;;;18.50;99.90;;;;;;4372985;28;659339;-65
2022/07/05 07:32:42;;;;;;;12.03;9.70;;;18.50;99.90;;;;;;4379886;28;658645;-67
2022/07/05 07:35:29;;;;;;;10.87;9.43;;;18.50;99.90;;;;;;4395245;28;658683;-64
2022/07/05 07:38:16;;;;;;;12.80;9.13;;;18.60;99.90;;;;;;4374963;28;658255;-65
2022/07/05 07:41:03;;;;;;;11.77;9.60;;;18.60;99.90;;;;;;4397834;28;659574;-65
2022/07/05 07:43:50;;;;;;;14.77;9.80;;;18.60;99.90;;;;;;4377639;28;659061;-67
2022/07/05 07:46:39;;;;;;;14.80;9.87;;;18.60;99.90;;;;;;4399071;28;658696;-65
2022/07/05 07:49:27;;;;;;;15.63;10.40;;;18.50;99.90;;;;;;4376545;28;658683;-66
2022/07/05 07:52:14;;;;;;;12.37;9.60;;;18.60;99.90;;;;;;4393355;28;659809;-65
2022/07/05 07:55:02;;;;;;;10.87;9.00;;;18.50;99.90;;;;;;4376816;28;658802;-65
2022/07/05 07:57:49;;;;;;;12.83;9.17;;;18.40;99.90;;;;;;4394971;28;658883;-65
2022/07/05 08:00:36;;;;;;;12.00;8.43;;;18.40;99.90;;;;;;4376580;28;658665;-65
2022/07/05 08:03:23;;;;;;;13.60;9.27;;;18.30;99.90;;;;;;4395326;28;659172;-65
2022/07/05 08:06:12;;;;;;;13.13;9.50;;;18.30;99.90;;;;;;4380647;28;658630;-66
2022/07/05 08:08:59;;;;;;;11.80;8.93;;;18.30;99.90;;;;;;4395444;28;658510;-65
2022/07/05 08:11:46;;;;;;;10.13;7.53;;;18.20;99.90;;;;;;4376852;28;658526;-64
2022/07/05 08:14:33;;;;;;;8.53;7.23;;;18.30;99.90;;;;;;4395230;28;659180;-64
2022/07/05 08:17:21;;;;;;;9.57;7.70;;;18.30;99.90;;;;;;4377929;28;657639;-64
2022/07/05 08:23:29;;;;;;;12.53;9.43;;;18.20;99.90;;;;;;4302381;28;659156;-65
2022/07/05 08:26:16;;;;;;;15.23;10.10;;;18.30;99.90;;;;;;4323543;28;658593;-64
2022/07/05 08:29:04;;;;;;;11.63;8.37;;;18.30;99.90;;;;;;4372577;28;660382;-65
2022/07/05 08:31:52;;;;;;;13.95;9.00;;;18.40;99.90;;;;;;4376220;28;658589;-65
2022/07/05 08:34:39;;;;;;;11.27;9.80;;;18.40;99.90;;;;;;4394853;28;658690;-64
2022/07/05 08:37:26;;;;;;;15.10;10.13;;;18.40;99.90;;;;;;4376017;28;658330;-65
2022/07/05 08:40:14;;;;;;;16.10;10.63;;;18.40;99.90;;;;;;4396150;28;660782;-65
2022/07/05 08:43:02;;;;;;;13.10;8.97;;;18.40;99.90;;;;;;4375284;28;659635;-65
2022/07/05 08:45:50;;;;;;;12.97;10.73;;;18.30;99.90;;;;;;4393693;28;658531;-66
2022/07/05 08:48:41;;;;;;;13.93;12.17;;;18.30;99.90;;;;;;4393947;28;661540;-64
2022/07/05 08:51:29;;;;;;;17.83;13.50;;;18.20;99.90;;;;;;4370243;28;660234;-65
2022/07/05 08:54:16;;;;;;;17.30;13.70;;;18.30;99.90;;;;;;4375264;28;660228;-64
2022/07/05 08:57:05;;;;;;;19.43;13.97;;;18.30;99.90;;;;;;4393683;28;659830;-65
2022/07/05 08:59:52;;;;;;;16.10;12.47;;;18.30;99.90;;;;;;4373060;28;659773;-64
2022/07/05 09:02:39;;;;;;;16.17;12.87;;;18.30;99.90;;;;;;4393960;28;660091;-65
2022/07/05 09:05:26;;;;;;;16.73;12.53;;;18.20;99.90;;;;;;4375150;28;659941;-65
2022/07/05 09:08:14;;;;;;;14.73;12.37;;;18.20;99.90;;;;;;4393773;28;660128;-65
2022/07/05 09:11:02;;;;;;;16.27;12.60;;;18.20;99.90;;;;;;4370783;28;661197;-65
2022/07/05 09:13:51;;;;;;;17.17;12.77;;;18.00;99.90;;;;;;4393480;28;659822;-65
2022/07/05 09:16:38;;;;;;;21.08;11.82;;;17.90;99.90;;;;;;4372747;28;660725;-64
2022/07/05 09:19:25;;;;;;;14.97;12.10;;;18.10;99.90;;;;;;4377883;28;660496;-65
2022/07/05 09:22:13;;;;;;;16.03;13.17;;;18.20;99.90;;;;;;4397050;28;660764;-64
2022/07/05 09:25:13;;;;;;;18.60;12.50;;;18.20;99.90;;;;;;4377577;28;659781;-65
2022/07/05 09:28:02;;;;;;;16.13;12.87;;;18.30;99.90;;;;;;4357199;28;660804;-66
2022/07/05 09:30:51;;;;;;;14.10;10.27;;;18.20;99.90;;;;;;4396257;28;660141;-64
2022/07/05 09:33:42;;;;;;;12.17;9.17;;;18.30;99.90;;;;;;4373457;28;660597;-64
2022/07/05 09:36:29;;;;;;;11.53;9.27;;;18.40;99.90;;;;;;4374946;28;658935;-65
2022/07/05 09:39:16;;;;;;;15.20;10.53;;;18.30;99.90;;;;;;4378646;28;658720;-65
2022/07/05 09:42:19;;;;;;;13.53;10.43;;;18.30;99.90;;;;;;4396227;28;659982;-65
2022/07/05 09:45:07;;;;;;;11.60;9.20;;;18.30;99.90;;;;;;4377249;28;659706;-65
2022/07/05 09:47:56;;;;;;;8.83;7.63;;;18.30;99.90;;;;;;4397747;28;658816;-64
2022/07/05 09:50:44;;;;;;;9.17;8.10;;;18.30;99.90;;;;;;4375394;28;659024;-65
2022/07/05 09:53:45;;;;;;;10.03;8.40;;;18.30;99.90;;;;;;4379840;28;658601;-65
2022/07/05 09:56:44;;;;;;;12.43;10.00;;;18.20;99.90;;;;;;4351775;28;658690;-65
2022/07/05 09:59:32;;;;;;;11.73;9.20;;;18.20;99.90;;;;;;4377133;28;659836;-65
2022/07/05 10:02:25;;;;;;;11.20;9.47;;;18.30;99.90;;;;;;4397137;28;658775;-65
2022/07/05 10:05:15;;;;;;;12.37;10.00;;;18.30;99.90;;;;;;4351588;28;659734;-65
2022/07/05 10:08:02;;;;;;;13.00;10.47;;;18.20;99.90;;;;;;4373293;28;660834;-65
2022/07/05 10:10:49;;;;;;;12.27;10.80;;;18.10;99.90;;;;;;4395856;28;659254;-65
2022/07/05 10:13:36;;;;;;;15.07;11.30;;;18.10;99.90;;;;;;4377021;28;659887;-65
2022/07/05 10:16:24;;;;;;;18.43;12.67;;;18.10;99.90;;;;;;4395993;28;659948;-65
2022/07/05 10:19:14;;;;;;;15.37;9.27;;;18.20;99.90;;;;;;4377007;28;659776;-65
2022/07/05 10:22:03;;;;;;;13.00;9.23;;;18.20;99.90;;;;;;4374479;28;658618;-65
2022/07/05 10:24:50;;;;;;;10.77;9.57;;;17.90;99.90;;;;;;4378002;28;658699;-66
2022/07/05 10:27:38;;;;;;;8.67;6.53;;;18.00;99.90;;;;;;4395967;28;660200;-65
2022/07/05 10:30:25;;;;;;;5.50;4.97;;;18.10;99.90;;;;;;4387816;28;657644;-66
2022/07/05 10:33:14;;;;;;;7.23;6.20;;;18.20;99.90;;;;;;4397661;28;659377;-65
2022/07/05 10:36:01;;;;;;;7.57;5.17;;;18.20;99.90;;;;;;4379314;28;657720;-65
2022/07/05 10:38:50;;;;;;;6.00;5.40;;;18.30;99.90;;;;;;4397966;28;657482;-65
2022/07/05 10:41:39;;;;;;;10.50;7.47;;;18.20;99.90;;;;;;4378976;28;658820;-65
2022/07/05 10:44:27;;;;;;;8.87;7.83;;;18.20;99.90;;;;;;4377697;28;658933;-65
2022/07/05 10:47:17;;;;;;;6.13;5.53;;;18.20;99.90;;;;;;4379765;28;657958;-66
2022/07/05 10:50:05;;;;;;;7.30;5.80;;;18.30;99.90;;;;;;4384124;28;657664;-65
2022/07/05 10:53:02;;;;;;;7.30;5.57;;;18.40;99.90;;;;;;4361830;28;658256;-65
2022/07/05 10:55:53;;;;;;;7.87;5.77;;;18.40;99.90;;;;;;4357439;28;658036;-65
2022/07/05 10:58:40;;;;;;;7.20;6.50;;;18.40;99.90;;;;;;4350439;28;657703;-66
2022/07/05 11:01:35;;;;;;;7.30;6.17;;;18.30;99.90;;;;;;4380116;28;658462;-65
2022/07/05 11:04:32;;;;;;;8.43;7.17;;;18.20;99.90;;;;;;4334554;28;658224;-65
2022/07/05 11:07:48;;;;;;;8.83;6.10;;;18.00;99.90;;;;;;4357499;28;657605;-65
2022/07/05 11:10:35;;;;;;;7.37;6.13;;;18.00;99.90;;;;;;4351606;28;657697;-66
2022/07/05 11:13:40;;;;;;;7.93;6.27;;;18.10;99.90;;;;;;4380014;28;658348;-65
2022/07/05 11:16:29;;;;;;;8.07;5.90;;;18.10;99.90;;;;;;4334368;28;658700;-65
2022/07/05 11:19:20;;;;;;;7.60;6.23;;;18.10;99.90;;;;;;4361333;28;657553;-65
2022/07/05 11:22:07;;;;;;;7.53;6.83;;;18.20;99.90;;;;;;4357293;28;658740;-65
2022/07/05 11:24:54;;;;;;;9.03;6.47;;;18.30;99.90;;;;;;4379625;28;658368;-65
2022/07/05 11:28:00;;;;;;;9.17;6.63;;;18.30;99.90;;;;;;4361272;28;658263;-65
2022/07/05 11:30:50;;;;;;;7.30;6.60;;;18.40;99.90;;;;;;4335037;28;657813;-65
2022/07/05 11:33:42;;;;;;;7.40;6.50;;;18.50;99.90;;;;;;4376791;28;658098;-66
2022/07/05 11:36:31;;;;;;;7.93;6.60;;;18.60;99.90;;;;;;4373329;28;657546;-65
2022/07/05 11:39:20;;;;;;;7.27;5.77;;;18.60;99.90;;;;;;4372495;28;657807;-65
2022/07/05 11:42:08;;;;;;;7.30;6.23;;;18.60;99.90;;;;;;4377191;28;658286;-65
2022/07/05 11:44:55;;;;;;;6.77;5.60;;;18.70;99.90;;;;;;4388263;28;657850;-66
2022/07/05 11:47:44;;;;;;;6.30;5.22;;;18.70;99.90;;;;;;4399872;28;657637;-65
2022/07/05 11:50:32;;;;;;;6.57;5.87;;;18.70;99.90;;;;;;4377114;28;657648;-65
2022/07/05 11:53:26;;;;;;;5.40;4.90;;;18.60;99.90;;;;;;4394147;28;658021;-65
2022/07/05 11:56:14;;;;;;;8.10;5.47;;;18.30;99.90;;;;;;4372658;28;658033;-65
2022/07/05 11:59:01;;;;;;;6.87;5.13;;;18.40;99.90;;;;;;4377028;28;657872;-65
2022/07/05 12:01:48;;;;;;;6.60;5.70;;;18.30;99.90;;;;;;4397991;28;658421;-65
2022/07/05 12:04:36;;;;;;;6.70;6.00;;;18.50;99.90;;;;;;4378589;28;657540;-66
2022/07/05 12:07:27;;;;;;;9.07;5.70;;;18.50;99.90;;;;;;4395646;28;658082;-64
2022/07/05 12:13:19;;;;;;;4.93;4.43;;;18.50;99.90;;;;;;4372571;28;658332;-64
2022/07/05 12:16:07;;;;;;;5.43;4.33;;;18.50;99.90;;;;;;4376601;28;657540;-65
2022/07/05 12:18:55;;;;;;;8.23;4.10;;;18.40;99.90;;;;;;4395498;28;657472;-65
2022/07/05 12:21:52;;;;;;;5.60;4.20;;;18.40;99.90;;;;;;4372736;28;659179;-65
2022/07/05 12:24:39;;;;;;;5.00;4.50;;;18.40;99.90;;;;;;4376774;28;657995;-65
2022/07/05 12:27:26;;;;;;;5.00;4.47;;;18.30;99.90;;;;;;4374018;28;657484;-65
2022/07/05 12:30:14;;;;;;;7.73;4.10;;;18.20;99.90;;;;;;4395697;28;657572;-65
2022/07/05 12:33:01;;;;;;;5.40;4.17;;;18.00;99.90;;;;;;4376446;28;657458;-65
2022/07/05 12:35:50;;;;;;;5.17;4.60;;;18.00;99.90;;;;;;4395132;28;658612;-65
2022/07/05 12:38:39;;;;;;;7.03;3.93;;;18.00;99.90;;;;;;4375964;28;657741;-65
2022/07/05 12:41:26;;;;;;;4.07;3.67;;;18.00;99.90;;;;;;4376890;28;657755;-65
2022/07/05 12:44:13;;;;;;;4.77;4.10;;;18.00;99.90;;;;;;4398665;28;657944;-65
2022/07/05 12:47:04;;;;;;;3.97;3.30;;;18.20;99.90;;;;;;4383630;28;657560;-67
2022/07/05 12:49:55;;;;;;;4.00;3.40;;;18.10;99.90;;;;;;4377782;28;658261;-65
2022/07/05 12:58:01;;;;;;;3.67;3.37;;;18.30;99.90;;;;;;4379221;28;658626;-65
2022/07/05 12:59:18;;;;;;;3.50;3.10;;;18.40;99.90;;;;;;4375958;28;658100;-65
2022/07/05 13:02:05;;;;;;;4.30;3.37;;;18.40;99.90;;;;;;4379341;28;657652;-66
2022/07/05 13:04:53;;;;;;;3.97;3.00;;;18.50;99.90;;;;;;4398565;28;659366;-65
2022/07/05 13:07:44;;;;;;;5.50;3.20;;;18.50;99.90;;;;;;4379788;28;657472;-65
2022/07/05 13:10:32;;;;;;;2.80;2.60;;;18.50;99.90;;;;;;4379713;28;657882;-65
2022/07/05 13:13:21;;;;;;;5.77;2.80;;;18.60;99.90;;;;;;4398115;28;657439;-65
2022/07/05 13:16:08;;;;;;;3.83;2.90;;;18.60;99.90;;;;;;4375540;28;657960;-65
2022/07/05 13:18:55;;;;;;;4.18;2.97;;;18.70;99.90;;;;;;4383832;28;657698;-66
2022/07/05 13:21:42;;;;;;;3.47;3.00;;;18.80;99.90;;;;;;4402123;28;658397;-65
2022/07/05 13:24:29;;;;;;;4.73;3.10;;;18.60;99.90;;;;;;4397836;28;658151;-65
2022/07/05 13:27:17;;;;;;;4.40;3.00;;;18.70;99.90;;;;;;4379089;28;658277;-65
2022/07/05 13:30:06;;;;;;;3.73;3.23;;;18.80;99.90;;;;;;4397981;28;657636;-65
2022/07/05 13:32:53;;;;;;;6.03;3.40;;;19.00;99.90;;;;;;4374721;28;657423;-65
2022/07/05 13:35:40;;;;;;;3.77;3.00;;;19.10;99.90;;;;;;4378990;28;658136;-65
2022/07/05 13:38:27;;;;;;;3.53;2.83;;;19.30;99.90;;;;;;4397276;28;658905;-65
2022/07/05 13:41:15;;;;;;;3.57;3.07;;;19.20;99.90;;;;;;4393799;28;658254;-66
2022/07/05 13:44:02;;;;;;;4.70;2.80;;;19.30;99.90;;;;;;4401624;28;658070;-65
2022/07/05 13:46:51;;;;;;;3.30;3.00;;;19.30;99.90;;;;;;4397050;28;657500;-65
2022/07/05 13:49:39;;;;;;;6.13;3.00;;;19.30;99.90;;;;;;4374809;28;658374;-65
2022/07/05 13:52:26;;;;;;;3.50;3.00;;;19.30;99.90;;;;;;4378792;28;658122;-65
2022/07/05 13:55:13;;;;;;;3.77;2.63;;;19.30;99.90;;;;;;4397405;28;658063;-65
2022/07/05 13:58:01;;;;;;;5.27;2.90;;;19.40;99.90;;;;;;4378490;28;658119;-66
2022/07/05 14:00:48;;;;;;;3.20;2.90;;;19.50;99.90;;;;;;4401118;28;658064;-65
2022/07/05 14:03:36;;;;;;;3.40;3.03;;;19.50;99.90;;;;;;4387300;28;657660;-66
2022/07/05 14:06:23;;;;;;;6.67;3.10;;;19.50;99.90;;;;;;4397571;28;659169;-65
2022/07/05 14:09:11;;;;;;;4.70;4.07;;;19.30;99.90;;;;;;4378391;28;657753;-65
2022/07/05 14:11:58;;;;;;;5.57;4.20;;;19.40;99.90;;;;;;4401006;28;657877;-65
2022/07/05 14:14:45;;;;;;;3.97;3.57;;;19.40;99.90;;;;;;4385253;28;657498;-67
2022/07/05 14:17:32;;;;;;;3.40;3.07;;;19.40;99.90;;;;;;4401057;28;658947;-65
2022/07/05 14:20:21;;;;;;;5.10;3.70;;;19.40;99.90;;;;;;4397075;28;657816;-65
2022/07/05 14:23:08;;;;;;;6.50;3.67;;;19.50;99.90;;;;;;4374425;28;658364;-65
2022/07/05 14:25:55;;;;;;;5.07;3.70;;;19.60;99.90;;;;;;4377959;28;657542;-67
2022/07/05 14:28:42;;;;;;;5.33;3.60;;;19.60;99.90;;;;;;4400935;28;657574;-65
2022/07/05 14:31:31;;;;;;;5.00;4.00;;;19.70;99.90;;;;;;4396520;28;658413;-66